Time;durP1;ratioP1;P1;durP2;ratioP2;P2;SDS_P1;SDS_P2;PMS_P1;PMS_P2;Temp;Humidity;BMP_temperature;BMP_pressure;BME280_temperature;BME280_humidity;BME280_pressure;Samples;Min_cycle;Max_cycle;Signal;HPM_P1;HPM_P2
2023/04/17 00:02:18;;;;;;;8.40;6.40;;;10.00;42.40;;;;;;5097889;28;20479;-70
2023/04/17 00:04:46;;;;;;;9.03;6.27;;;10.00;42.40;;;;;;5100790;28;20468;-70
2023/04/17 00:07:12;;;;;;;10.10;7.30;;;10.00;42.40;;;;;;5103953;28;20463;-70
2023/04/17 00:09:39;;;;;;;8.57;6.00;;;10.00;42.30;;;;;;5100081;27;20974;-70
2023/04/17 00:12:06;;;;;;;10.00;7.40;;;10.00;42.50;;;;;;5103094;28;20483;-70
2023/04/17 00:14:34;;;;;;;9.93;7.27;;;10.00;42.50;;;;;;5103772;28;20487;-70
2023/04/17 00:17:01;;;;;;;8.43;5.73;;;10.00;42.60;;;;;;5105052;28;20475;-70
2023/04/17 00:19:27;;;;;;;10.87;6.90;;;10.00;42.40;;;;;;5104909;28;20469;-71
2023/04/17 00:21:54;;;;;;;9.77;6.63;;;10.00;42.60;;;;;;5101189;28;20483;-70
2023/04/17 00:24:21;;;;;;;9.80;7.30;;;10.00;42.50;;;;;;5099435;28;20460;-70
2023/04/17 00:26:47;;;;;;;8.40;6.03;;;10.00;42.50;;;;;;5099820;28;20452;-71
2023/04/17 00:29:14;;;;;;;11.10;7.47;;;10.00;42.40;;;;;;5102023;27;20503;-70
2023/04/17 00:31:42;;;;;;;10.40;7.00;;;10.00;42.40;;;;;;5098394;28;20479;-70
2023/04/17 00:34:09;;;;;;;9.13;6.87;;;10.00;42.50;;;;;;5097238;28;20482;-70
2023/04/17 00:36:35;;;;;;;11.43;7.00;;;10.00;42.50;;;;;;5098894;28;20463;-70
2023/04/17 00:39:02;;;;;;;8.73;6.40;;;10.00;42.50;;;;;;5106918;28;20459;-70
2023/04/17 00:41:29;;;;;;;10.87;7.07;;;10.00;42.50;;;;;;5105056;27;20490;-70
2023/04/17 00:43:55;;;;;;;9.50;6.70;;;10.00;42.50;;;;;;5102557;27;20459;-70
2023/04/17 00:46:22;;;;;;;9.80;7.07;;;9.90;42.70;;;;;;5106644;27;20459;-70
2023/04/17 00:48:50;;;;;;;9.00;6.67;;;10.00;42.60;;;;;;5104776;28;20856;-70
2023/04/17 00:51:17;;;;;;;9.23;6.90;;;10.00;42.60;;;;;;5092951;28;20488;-70
2023/04/17 00:53:44;;;;;;;9.73;7.00;;;10.00;42.60;;;;;;5102626;28;20476;-71
2023/04/17 00:56:11;;;;;;;7.93;6.20;;;10.00;42.60;;;;;;5092667;28;20956;-71
2023/04/17 00:58:38;;;;;;;11.20;7.70;;;10.00;42.80;;;;;;5097851;28;20461;-71
2023/04/17 01:01:06;;;;;;;10.03;7.50;;;10.00;42.70;;;;;;5100086;28;20479;-71
2023/04/17 01:03:33;;;;;;;9.77;7.13;;;9.90;42.80;;;;;;5098820;28;20460;-71
2023/04/17 01:06:02;;;;;;;9.93;7.60;;;9.90;42.90;;;;;;5095463;28;20455;-71
2023/04/17 01:08:33;;;;;;;10.73;7.40;;;9.90;43.10;;;;;;5102557;28;20484;-72
2023/04/17 01:11:00;;;;;;;9.93;7.47;;;9.90;43.20;;;;;;5092733;28;20483;-71
2023/04/17 01:13:27;;;;;;;10.90;7.67;;;9.80;43.40;;;;;;5091746;27;20459;-71
2023/04/17 01:15:53;;;;;;;12.20;7.90;;;9.70;44.10;;;;;;5102774;28;20463;-71
2023/04/17 01:18:20;;;;;;;11.63;8.53;;;9.70;44.60;;;;;;5101602;28;20877;-71
2023/04/17 01:20:47;;;;;;;10.70;8.60;;;9.60;44.70;;;;;;5100822;28;20485;-71
2023/04/17 01:23:15;;;;;;;12.23;9.27;;;9.50;45.50;;;;;;5098989;28;20479;-71
2023/04/17 01:25:45;;;;;;;10.30;8.00;;;9.50;45.50;;;;;;5096097;28;20452;-70
2023/04/17 01:28:11;;;;;;;10.53;8.57;;;9.50;45.60;;;;;;5101888;28;20976;-71
2023/04/17 01:30:38;;;;;;;11.83;9.03;;;9.50;45.70;;;;;;5093855;28;20467;-71
2023/04/17 01:33:05;;;;;;;11.37;8.17;;;9.50;45.90;;;;;;5097094;28;20467;-70
2023/04/17 01:35:31;;;;;;;10.80;8.50;;;9.50;45.70;;;;;;5101172;28;20484;-71
2023/04/17 01:37:58;;;;;;;10.97;8.50;;;9.50;45.80;;;;;;5104351;28;20455;-70
2023/04/17 01:40:25;;;;;;;11.10;7.50;;;9.50;45.50;;;;;;5102947;28;20859;-71
2023/04/17 01:42:53;;;;;;;11.57;8.67;;;9.50;45.60;;;;;;5101501;28;20460;-71
2023/04/17 01:45:20;;;;;;;12.10;8.90;;;9.50;45.30;;;;;;5105154;28;20479;-71
2023/04/17 01:47:47;;;;;;;10.23;8.37;;;9.60;45.30;;;;;;5098007;28;20575;-71
2023/04/17 01:50:14;;;;;;;11.17;8.67;;;9.60;45.20;;;;;;5101450;28;20459;-71
2023/04/17 01:52:41;;;;;;;12.03;9.47;;;9.60;45.50;;;;;;5100390;28;20877;-71
2023/04/17 01:55:08;;;;;;;13.73;9.53;;;9.60;45.70;;;;;;5101381;28;20480;-71
2023/04/17 01:57:35;;;;;;;14.30;9.33;;;9.60;45.60;;;;;;5102844;28;20936;-70
2023/04/17 02:00:06;;;;;;;10.83;8.70;;;9.60;45.80;;;;;;5097039;28;20468;-71
2023/04/17 02:02:32;;;;;;;11.93;10.20;;;9.60;45.60;;;;;;5093637;28;20471;-70
2023/04/17 02:04:59;;;;;;;11.07;8.57;;;9.60;45.50;;;;;;5099677;28;20471;-70
2023/04/17 02:07:26;;;;;;;10.80;8.33;;;9.60;45.30;;;;;;5103239;28;20491;-70
2023/04/17 02:09:52;;;;;;;11.90;8.77;;;9.60;45.30;;;;;;5108277;28;20861;-70
2023/04/17 02:12:19;;;;;;;12.47;9.37;;;9.60;45.10;;;;;;5103480;28;20498;-71
2023/04/17 02:14:46;;;;;;;11.97;9.07;;;9.70;45.20;;;;;;5089662;28;20480;-70
2023/04/17 02:17:14;;;;;;;13.50;9.30;;;9.70;45.10;;;;;;5103117;28;20462;-70
2023/04/17 02:19:41;;;;;;;11.87;9.43;;;9.70;45.00;;;;;;5091478;28;20464;-71
2023/04/17 02:22:07;;;;;;;11.20;9.00;;;9.70;44.90;;;;;;5090977;28;20841;-71
2023/04/17 02:24:34;;;;;;;12.43;8.97;;;9.70;44.90;;;;;;5090865;28;20482;-71
2023/04/17 02:27:01;;;;;;;13.83;9.73;;;9.80;44.80;;;;;;5099425;28;20463;-71
2023/04/17 02:29:28;;;;;;;11.73;9.43;;;9.70;44.90;;;;;;5112345;27;20946;-72
2023/04/17 02:31:55;;;;;;;11.83;9.53;;;9.80;44.80;;;;;;5100751;27;20475;-71
2023/04/17 02:34:23;;;;;;;12.50;9.67;;;9.80;44.60;;;;;;5100623;28;20483;-71
2023/04/17 02:36:49;;;;;;;13.10;10.00;;;9.80;44.60;;;;;;5103436;28;20828;-71
2023/04/17 02:39:16;;;;;;;10.97;9.20;;;9.80;44.70;;;;;;5102270;28;20444;-70
2023/04/17 02:41:43;;;;;;;13.33;10.33;;;9.80;44.70;;;;;;5093930;28;20495;-71
2023/04/17 02:44:09;;;;;;;11.60;8.57;;;9.80;44.50;;;;;;5100294;28;20470;-71
2023/04/17 02:46:36;;;;;;;11.97;9.37;;;9.80;44.60;;;;;;5107041;28;20455;-71
2023/04/17 02:49:03;;;;;;;15.53;8.60;;;9.80;44.40;;;;;;5103411;28;21086;-70
2023/04/17 02:51:31;;;;;;;12.33;9.27;;;9.80;44.40;;;;;;5107848;27;20490;-71
2023/04/17 02:53:58;;;;;;;11.43;9.30;;;9.80;44.30;;;;;;5103471;27;20951;-71
2023/04/17 02:56:24;;;;;;;12.50;9.80;;;9.80;44.30;;;;;;5100202;28;20455;-71
2023/04/17 02:58:51;;;;;;;11.33;9.00;;;9.90;44.40;;;;;;5103854;28;20459;-71
2023/04/17 03:01:18;;;;;;;12.63;9.33;;;9.90;44.40;;;;;;5101955;28;20507;-71
2023/04/17 03:03:44;;;;;;;12.90;9.80;;;9.90;44.40;;;;;;5099535;28;20479;-71
2023/04/17 03:06:11;;;;;;;13.40;10.60;;;9.90;44.30;;;;;;5104560;28;20459;-70
2023/04/17 03:08:39;;;;;;;12.87;10.40;;;9.90;44.40;;;;;;5099626;28;20792;-70
2023/04/17 03:11:06;;;;;;;13.57;9.70;;;9.90;44.30;;;;;;5101687;27;20994;-70
2023/04/17 03:13:35;;;;;;;12.17;10.10;;;9.90;44.20;;;;;;5100433;27;20467;-70
2023/04/17 03:16:03;;;;;;;11.97;9.37;;;9.90;44.40;;;;;;5099199;28;20479;-69
2023/04/17 03:18:30;;;;;;;10.70;8.30;;;9.90;44.30;;;;;;5101291;28;20461;-70
2023/04/17 03:20:56;;;;;;;11.20;8.93;;;9.90;44.30;;;;;;5104938;27;20858;-70
2023/04/17 03:23:23;;;;;;;11.30;8.67;;;9.90;44.20;;;;;;5101372;28;20463;-69
2023/04/17 03:25:51;;;;;;;12.20;8.43;;;9.90;44.00;;;;;;5101497;28;20459;-69
2023/04/17 03:28:18;;;;;;;12.40;9.10;;;9.90;44.10;;;;;;5104152;27;20463;-69
2023/04/17 03:30:45;;;;;;;13.17;8.40;;;9.90;44.00;;;;;;5091165;28;20864;-70
2023/04/17 03:33:12;;;;;;;13.17;9.60;;;9.90;44.00;;;;;;5099341;28;20471;-70
2023/04/17 03:35:39;;;;;;;11.40;8.70;;;9.90;44.10;;;;;;5105580;28;20475;-70
2023/04/17 03:38:06;;;;;;;12.07;8.43;;;9.90;44.10;;;;;;5102538;28;20666;-70
2023/04/17 03:40:33;;;;;;;13.03;9.67;;;9.90;44.10;;;;;;5099005;28;20483;-70
2023/04/17 03:43:01;;;;;;;12.00;9.60;;;9.90;44.00;;;;;;5100792;28;20464;-69
2023/04/17 03:45:28;;;;;;;13.07;9.33;;;9.90;44.10;;;;;;5100355;27;20460;-70
2023/04/17 03:47:54;;;;;;;14.20;10.37;;;9.90;44.10;;;;;;5105559;28;20827;-69
2023/04/17 03:50:21;;;;;;;13.43;9.30;;;9.90;44.10;;;;;;5101233;28;20478;-70
2023/04/17 03:52:48;;;;;;;12.97;9.93;;;9.90;44.20;;;;;;5098359;27;20821;-69
2023/04/17 03:55:15;;;;;;;13.77;10.87;;;9.80;44.10;;;;;;5093957;28;20472;-69
2023/04/17 03:57:42;;;;;;;14.40;10.70;;;9.80;44.10;;;;;;5100223;28;20564;-70
2023/04/17 04:00:11;;;;;;;12.40;9.63;;;9.80;44.00;;;;;;5102773;28;20460;-70
2023/04/17 04:02:38;;;;;;;13.20;9.47;;;9.90;44.10;;;;;;5098491;27;20487;-69
2023/04/17 04:05:05;;;;;;;14.60;10.10;;;9.90;44.00;;;;;;5089711;28;20551;-70
2023/04/17 04:07:32;;;;;;;15.33;11.13;;;9.90;44.00;;;;;;5103033;28;20463;-70
2023/04/17 04:09:59;;;;;;;14.40;10.60;;;9.90;44.00;;;;;;5089593;28;20463;-70
2023/04/17 04:12:25;;;;;;;16.20;12.50;;;9.80;44.10;;;;;;5093793;28;20854;-70
2023/04/17 04:14:52;;;;;;;16.97;12.10;;;9.80;44.00;;;;;;5085475;28;20486;-70
2023/04/17 04:17:20;;;;;;;14.93;10.47;;;9.80;44.10;;;;;;5093638;28;20472;-70
2023/04/17 04:19:47;;;;;;;15.10;11.80;;;9.80;44.20;;;;;;5095219;27;20463;-70
2023/04/17 04:22:13;;;;;;;14.20;10.57;;;9.80;44.10;;;;;;5096872;27;20754;-70
2023/04/17 04:24:41;;;;;;;17.57;12.70;;;9.80;44.10;;;;;;5100821;28;20466;-70
2023/04/17 04:27:08;;;;;;;14.83;11.13;;;9.80;44.00;;;;;;5095925;28;20552;-70
2023/04/17 04:29:36;;;;;;;16.00;12.40;;;9.80;44.00;;;;;;5097334;28;20456;-70
2023/04/17 04:32:03;;;;;;;15.70;11.53;;;9.80;44.00;;;;;;5093345;28;20571;-70
2023/04/17 04:34:31;;;;;;;15.07;11.33;;;9.80;43.90;;;;;;5086753;28;20505;-68
2023/04/17 04:36:58;;;;;;;14.40;11.30;;;9.80;43.90;;;;;;5091493;27;20464;-68
2023/04/17 04:42:08;;;;;;;15.73;11.73;;;9.80;44.00;;;;;;5084807;28;20607;-69
2023/04/17 04:44:35;;;;;;;16.70;12.33;;;9.70;44.00;;;;;;5087233;28;20464;-68
2023/04/17 04:47:02;;;;;;;15.50;12.07;;;9.70;44.20;;;;;;5098935;28;20567;-68
2023/04/17 04:49:28;;;;;;;15.07;11.80;;;9.70;44.20;;;;;;5101978;28;20459;-68
2023/04/17 04:51:56;;;;;;;15.00;10.80;;;9.80;44.10;;;;;;5101726;28;20483;-68
2023/04/17 04:54:23;;;;;;;16.17;12.00;;;9.80;44.00;;;;;;5099139;28;20470;-68
2023/04/17 04:56:50;;;;;;;15.60;12.20;;;9.80;44.00;;;;;;5105614;27;20486;-68
2023/04/17 04:59:16;;;;;;;17.00;12.37;;;9.80;44.00;;;;;;5105617;28;22125;-68
2023/04/17 05:01:44;;;;;;;19.33;10.87;;;9.80;43.90;;;;;;5099755;28;20476;-68
2023/04/17 05:04:10;;;;;;;16.53;12.23;;;9.80;43.90;;;;;;5101243;28;20455;-68
2023/04/17 05:06:37;;;;;;;16.63;13.27;;;9.80;43.80;;;;;;5103002;28;20961;-68
2023/04/17 05:09:05;;;;;;;16.87;12.37;;;9.90;43.90;;;;;;5106326;28;20461;-68
2023/04/17 05:11:32;;;;;;;16.50;12.03;;;9.90;43.90;;;;;;5103171;27;20970;-68
2023/04/17 05:13:59;;;;;;;18.13;11.83;;;9.90;43.80;;;;;;5101785;28;20490;-68
2023/04/17 05:16:26;;;;;;;17.57;12.20;;;9.90;43.70;;;;;;5098092;28;20475;-69
2023/04/17 05:18:53;;;;;;;16.97;12.70;;;9.90;43.80;;;;;;5106258;27;20482;-69
2023/04/17 05:21:19;;;;;;;15.43;11.73;;;9.90;43.60;;;;;;5099719;28;20491;-68
2023/04/17 05:23:46;;;;;;;15.63;12.20;;;9.90;43.80;;;;;;5100658;28;20471;-68
2023/04/17 05:26:14;;;;;;;16.10;11.90;;;10.00;43.70;;;;;;5102085;28;20884;-68
2023/04/17 05:28:43;;;;;;;15.90;12.20;;;10.00;43.70;;;;;;5102684;28;20973;-68
2023/04/17 05:31:10;;;;;;;16.70;11.50;;;9.90;43.70;;;;;;5098277;28;20935;-68
2023/04/17 05:33:37;;;;;;;16.40;11.57;;;10.00;43.50;;;;;;5101022;28;20456;-68
2023/04/17 05:36:04;;;;;;;16.07;12.00;;;10.00;44.10;;;;;;5095920;28;20479;-68
2023/04/17 05:38:30;;;;;;;17.67;12.20;;;10.00;43.50;;;;;;5102223;28;20471;-69
2023/04/17 05:40:57;;;;;;;17.93;11.57;;;10.00;43.50;;;;;;5100558;28;20486;-68
2023/04/17 05:43:25;;;;;;;16.97;12.57;;;10.00;43.50;;;;;;5103461;28;20459;-68
2023/04/17 05:45:52;;;;;;;16.47;11.23;;;10.10;43.50;;;;;;5100978;28;20452;-69
2023/04/17 05:48:19;;;;;;;16.63;12.43;;;10.10;43.50;;;;;;5095414;27;20471;-71
2023/04/17 05:50:46;;;;;;;16.27;11.70;;;10.10;43.50;;;;;;5101626;28;21460;-69
2023/04/17 05:53:12;;;;;;;20.20;15.10;;;10.10;43.20;;;;;;5102390;28;20462;-68
2023/04/17 05:55:39;;;;;;;44.40;29.03;;;10.10;43.40;;;;;;5102387;28;20486;-68
2023/04/17 05:58:06;;;;;;;42.30;31.97;;;10.10;43.40;;;;;;5096811;28;20459;-68
2023/04/17 06:00:35;;;;;;;20.50;15.60;;;10.10;43.30;;;;;;5097675;28;20491;-69
2023/04/17 06:03:02;;;;;;;18.33;13.50;;;10.10;43.40;;;;;;5089049;28;20471;-67
2023/04/17 06:05:29;;;;;;;18.60;13.33;;;10.10;43.40;;;;;;5101504;28;20985;-66
2023/04/17 06:07:56;;;;;;;18.07;13.23;;;10.10;43.50;;;;;;5108625;28;20703;-68
2023/04/17 06:10:22;;;;;;;16.97;13.00;;;10.10;43.50;;;;;;5106863;27;20467;-67
2023/04/17 06:12:49;;;;;;;17.50;13.20;;;10.10;43.60;;;;;;5106262;28;20466;-67
2023/04/17 06:15:16;;;;;;;18.10;12.80;;;10.10;43.40;;;;;;5102227;28;21048;-67
2023/04/17 06:17:44;;;;;;;17.80;12.93;;;10.10;43.30;;;;;;5109068;28;20474;-68
2023/04/17 06:20:12;;;;;;;16.47;12.43;;;10.20;43.30;;;;;;5099464;28;20461;-67
2023/04/17 06:22:39;;;;;;;18.17;13.23;;;10.20;43.40;;;;;;5104712;27;20471;-69
2023/04/17 06:25:07;;;;;;;16.43;11.83;;;10.30;43.30;;;;;;5096406;28;20841;-68
2023/04/17 06:27:34;;;;;;;17.57;12.57;;;10.30;43.30;;;;;;5105847;28;20936;-67
2023/04/17 06:30:00;;;;;;;15.70;12.10;;;10.40;43.00;;;;;;5106899;27;20466;-67
2023/04/17 06:32:27;;;;;;;16.70;13.00;;;10.40;43.00;;;;;;5106528;28;20482;-66
2023/04/17 06:34:55;;;;;;;17.87;12.30;;;10.40;42.70;;;;;;5101387;28;20459;-68
2023/04/17 06:37:22;;;;;;;16.80;12.80;;;10.50;42.60;;;;;;5104820;28;20482;-68
2023/04/17 06:39:48;;;;;;;15.53;12.40;;;10.50;42.60;;;;;;5107725;27;20466;-68
2023/04/17 06:42:15;;;;;;;17.23;13.30;;;10.60;42.60;;;;;;5099317;28;20476;-68
2023/04/17 06:44:42;;;;;;;14.80;10.90;;;10.60;42.60;;;;;;5095267;28;20488;-68
2023/04/17 06:47:09;;;;;;;16.10;12.17;;;10.70;43.00;;;;;;5099438;28;20484;-69
2023/04/17 06:49:36;;;;;;;16.00;12.63;;;10.80;42.20;;;;;;5103693;28;20471;-68
2023/04/17 06:52:04;;;;;;;15.97;12.63;;;10.70;42.30;;;;;;5107183;28;20486;-71
2023/04/17 06:54:31;;;;;;;17.57;12.93;;;10.80;42.30;;;;;;5106687;28;20463;-66
2023/04/17 06:56:58;;;;;;;17.50;12.37;;;10.80;42.20;;;;;;5108976;28;20482;-68
2023/04/17 06:59:24;;;;;;;18.80;14.20;;;10.80;42.20;;;;;;5102699;28;20563;-67
2023/04/17 07:01:51;;;;;;;14.93;11.80;;;10.80;42.00;;;;;;5104517;28;20491;-68
2023/04/17 07:04:20;;;;;;;17.80;13.30;;;10.90;42.00;;;;;;5104102;28;20467;-67
2023/04/17 07:06:46;;;;;;;15.43;11.70;;;11.00;41.90;;;;;;5100060;28;20491;-67
2023/04/17 07:09:15;;;;;;;16.00;11.97;;;11.00;41.60;;;;;;5102791;28;20464;-67
2023/04/17 07:11:42;;;;;;;16.73;12.20;;;11.00;41.40;;;;;;5102022;28;20574;-67
2023/04/17 07:14:08;;;;;;;15.87;11.73;;;11.10;41.40;;;;;;5102308;28;20474;-71
2023/04/17 07:16:35;;;;;;;15.90;11.83;;;11.00;41.20;;;;;;5103455;27;20502;-68
2023/04/17 07:19:02;;;;;;;16.00;12.67;;;11.10;41.20;;;;;;5106791;28;20451;-69
2023/04/17 07:21:28;;;;;;;17.10;11.70;;;11.00;40.60;;;;;;5101842;28;20480;-69
2023/04/17 07:23:55;;;;;;;15.67;12.03;;;11.00;40.70;;;;;;5099746;28;20964;-70
2023/04/17 07:26:23;;;;;;;15.10;11.60;;;11.00;40.80;;;;;;5104219;27;20456;-70
2023/04/17 07:28:50;;;;;;;19.50;13.00;;;11.00;41.10;;;;;;5106213;28;20470;-69
2023/04/17 07:31:17;;;;;;;16.00;12.37;;;11.10;41.10;;;;;;5101754;28;20478;-69
2023/04/17 07:33:43;;;;;;;14.77;11.70;;;11.10;40.60;;;;;;5097240;28;20469;-70
2023/04/17 07:36:11;;;;;;;16.63;11.20;;;11.20;40.10;;;;;;5100313;28;20479;-69
2023/04/17 07:38:38;;;;;;;14.70;11.17;;;11.30;40.00;;;;;;5106156;28;20890;-67
2023/04/17 07:41:05;;;;;;;15.83;12.10;;;11.30;40.40;;;;;;5104881;28;20486;-69
2023/04/17 07:43:33;;;;;;;14.93;11.77;;;11.30;39.70;;;;;;5106871;28;20502;-68
2023/04/17 07:46:00;;;;;;;15.43;11.60;;;11.30;39.80;;;;;;5107929;28;20459;-69
2023/04/17 07:48:27;;;;;;;14.43;10.20;;;11.30;39.80;;;;;;5101506;27;20456;-69
2023/04/17 07:50:53;;;;;;;15.50;11.20;;;11.20;39.80;;;;;;5099810;28;20511;-68
2023/04/17 07:53:21;;;;;;;13.53;10.90;;;11.20;40.10;;;;;;5103095;28;20879;-68
2023/04/17 07:55:47;;;;;;;14.83;11.23;;;11.10;40.20;;;;;;5103816;28;20548;-68
2023/04/17 07:58:15;;;;;;;14.93;11.10;;;11.00;39.90;;;;;;5102884;28;20967;-69
2023/04/17 08:00:43;;;;;;;14.60;10.60;;;10.90;40.10;;;;;;5102175;28;20842;-69
2023/04/17 08:03:09;;;;;;;16.53;11.83;;;11.00;40.20;;;;;;5103738;28;20471;-68
2023/04/17 08:05:36;;;;;;;17.10;12.03;;;11.00;40.30;;;;;;5103600;28;20978;-71
2023/04/17 08:08:04;;;;;;;15.77;12.37;;;11.00;40.10;;;;;;5102357;28;20460;-70
2023/04/17 08:10:31;;;;;;;14.60;11.60;;;11.10;39.90;;;;;;5103444;27;20490;-68
2023/04/17 08:12:58;;;;;;;15.20;11.20;;;11.30;40.10;;;;;;5102643;28;20467;-69
2023/04/17 08:15:25;;;;;;;13.90;10.90;;;11.40;39.70;;;;;;5107079;28;20467;-70
2023/04/17 08:17:53;;;;;;;14.13;10.53;;;11.50;39.40;;;;;;5101114;28;20479;-69
2023/04/17 08:20:19;;;;;;;15.60;10.83;;;11.60;39.10;;;;;;5104506;28;20478;-69
2023/04/17 08:22:46;;;;;;;15.03;11.50;;;11.60;38.60;;;;;;5106290;28;20470;-69
2023/04/17 08:25:14;;;;;;;14.33;10.30;;;11.70;38.50;;;;;;5100347;28;20459;-67
2023/04/17 08:27:42;;;;;;;15.43;11.30;;;11.70;38.50;;;;;;5103291;28;20964;-69
2023/04/17 08:30:11;;;;;;;17.20;11.37;;;11.90;38.40;;;;;;5099386;27;20463;-68
2023/04/17 08:32:38;;;;;;;15.80;10.93;;;12.00;38.00;;;;;;5094467;27;21053;-68
2023/04/17 08:35:08;;;;;;;16.17;11.43;;;12.20;37.60;;;;;;5096329;28;20452;-68
2023/04/17 08:37:35;;;;;;;13.50;10.27;;;12.20;36.80;;;;;;5103281;28;20563;-68
2023/04/17 08:40:03;;;;;;;16.40;11.30;;;12.30;36.50;;;;;;5097201;27;20467;-70
2023/04/17 08:42:31;;;;;;;13.13;10.63;;;12.30;36.40;;;;;;5078372;28;20467;-69
2023/04/17 08:44:59;;;;;;;14.10;11.00;;;12.30;36.60;;;;;;5074305;28;20525;-68
2023/04/17 08:47:26;;;;;;;15.03;11.03;;;12.30;36.50;;;;;;5080843;28;20581;-69
2023/04/17 08:49:54;;;;;;;13.33;10.13;;;12.40;36.30;;;;;;5072537;28;20471;-67
2023/04/17 08:52:23;;;;;;;14.97;11.50;;;12.50;35.90;;;;;;5080096;28;20486;-70
2023/04/17 08:54:49;;;;;;;13.87;9.70;;;12.50;35.30;;;;;;5077716;28;20480;-70
2023/04/17 08:57:16;;;;;;;13.20;9.93;;;12.60;34.50;;;;;;5076190;28;20571;-65
2023/04/17 08:59:44;;;;;;;14.63;10.40;;;12.70;34.30;;;;;;5077474;28;20461;-67
2023/04/17 09:02:11;;;;;;;13.90;9.80;;;12.90;34.20;;;;;;5073416;28;20487;-67
2023/04/17 09:04:40;;;;;;;13.93;10.10;;;13.10;33.60;;;;;;5075300;28;20979;-67
2023/04/17 09:07:08;;;;;;;12.77;9.30;;;13.40;33.30;;;;;;5078433;28;20461;-66
2023/04/17 09:09:55;;;;;;;14.30;10.53;;;13.80;32.90;;;;;;5077691;28;20456;-66
2023/04/17 09:12:23;;;;;;;12.70;9.30;;;14.50;31.00;;;;;;5075996;28;20476;-68
2023/04/17 09:14:50;;;;;;;12.80;9.13;;;14.80;28.00;;;;;;5083421;28;20459;-68
2023/04/17 09:17:18;;;;;;;11.83;8.57;;;15.10;26.70;;;;;;5080410;28;20480;-69
2023/04/17 09:20:06;;;;;;;11.20;8.13;;;15.30;26.10;;;;;;5073549;28;20479;-68
2023/04/17 09:22:33;;;;;;;10.50;8.37;;;15.60;26.50;;;;;;5080976;28;20961;-69
2023/04/17 09:25:02;;;;;;;10.53;8.03;;;16.50;25.90;;;;;;5081306;28;20460;-69
2023/04/17 09:27:29;;;;;;;10.17;8.03;;;18.10;23.40;;;;;;5080965;28;20464;-67
2023/04/17 09:30:01;;;;;;;10.43;8.07;;;20.40;18.40;;;;;;5078333;28;20926;-69
2023/04/17 09:32:29;;;;;;;10.63;7.97;;;24.00;12.40;;;;;;5072318;28;22384;-70
2023/04/17 09:34:59;;;;;;;8.43;6.70;;;26.40;6.50;;;;;;5077455;28;20975;-71
2023/04/17 09:37:28;;;;;;;7.90;6.30;;;29.60;1.00;;;;;;5078417;28;20557;-69
2023/04/17 09:39:56;;;;;;;8.47;6.13;;;31.90;1.00;;;;;;5075804;28;21410;-71
2023/04/17 09:42:24;;;;;;;7.10;6.10;;;33.20;1.00;;;;;;5097263;28;20998;-71
2023/04/17 09:44:51;;;;;;;7.33;6.30;;;33.70;1.00;;;;;;5098086;28;20451;-70
2023/04/17 09:47:18;;;;;;;6.83;6.13;;;34.30;1.00;;;;;;5096012;28;20456;-74
2023/04/17 09:49:48;;;;;;;8.80;6.00;;;33.90;1.00;;;;;;5100543;28;20995;-71
2023/04/17 09:52:16;;;;;;;6.50;5.30;;;32.90;1.00;;;;;;5091486;28;20487;-69
2023/04/17 09:54:45;;;;;;;6.67;5.53;;;34.70;1.00;;;;;;5104650;28;20988;-69
2023/04/17 09:57:12;;;;;;;6.40;5.00;;;36.40;1.00;;;;;;5098207;28;20490;-71
2023/04/17 09:59:41;;;;;;;7.13;5.60;;;35.60;1.00;;;;;;5098247;28;20463;-71
2023/04/17 10:02:10;;;;;;;6.27;5.57;;;36.60;1.00;;;;;;5095715;28;20599;-71
2023/04/17 10:04:39;;;;;;;6.87;5.80;;;38.00;1.00;;;;;;5096535;28;20474;-72
2023/04/17 10:07:06;;;;;;;6.97;5.80;;;38.10;1.00;;;;;;5092603;28;20460;-71
2023/04/17 10:09:33;;;;;;;6.53;5.53;;;38.10;1.00;;;;;;5100362;28;20506;-71
2023/04/17 10:12:02;;;;;;;6.67;5.17;;;37.00;1.00;;;;;;5098196;28;20479;-71
2023/04/17 10:14:32;;;;;;;6.73;5.27;;;34.90;1.00;;;;;;5097110;28;20467;-70
2023/04/17 10:17:23;;;;;;;8.80;6.00;;;34.80;1.00;;;;;;5097711;28;20475;-71
2023/04/17 10:19:50;;;;;;;6.87;5.33;;;35.50;1.00;;;;;;5101136;28;20902;-71
2023/04/17 10:22:31;;;;;;;6.50;5.30;;;33.80;1.00;;;;;;5098552;28;20490;-70
2023/04/17 10:25:20;;;;;;;6.97;5.17;;;31.50;1.00;;;;;;5100315;28;20459;-71
2023/04/17 10:27:50;;;;;;;7.10;5.67;;;29.60;1.00;;;;;;5085434;28;20456;-70
2023/04/17 10:30:18;;;;;;;6.70;5.53;;;30.20;1.00;;;;;;5098789;28;20463;-72
2023/04/17 10:33:06;;;;;;;6.20;4.90;;;31.70;1.00;;;;;;5099865;28;20528;-71
2023/04/17 10:35:34;;;;;;;6.77;5.33;;;31.20;1.00;;;;;;5102404;28;20459;-70
2023/04/17 10:38:10;;;;;;;6.37;5.00;;;31.50;1.00;;;;;;5099330;28;20580;-69
2023/04/17 10:40:38;;;;;;;7.43;5.40;;;29.60;1.00;;;;;;5097539;28;20822;-68
2023/04/17 10:43:08;;;;;;;6.43;5.00;;;27.80;1.00;;;;;;5101778;28;20965;-69
2023/04/17 10:46:09;;;;;;;7.33;5.70;;;26.60;1.00;;;;;;5098319;28;20468;-68
2023/04/17 10:48:40;;;;;;;5.67;4.20;;;26.10;1.00;;;;;;5019571;28;20501;-68
2023/04/17 10:51:41;;;;;;;7.27;4.57;;;25.40;1.00;;;;;;5025485;28;20839;-68
2023/04/17 10:54:12;;;;;;;6.83;5.13;;;24.50;1.00;;;;;;5078177;28;20951;-70
2023/04/17 10:56:41;;;;;;;7.50;5.50;;;23.50;1.00;;;;;;5105236;28;20867;-68
2023/04/17 10:59:09;;;;;;;7.27;5.00;;;22.80;1.30;;;;;;5101005;28;20459;-67
2023/04/17 11:01:40;;;;;;;7.67;5.53;;;22.10;2.50;;;;;;5099141;28;20482;-69
2023/04/17 11:04:10;;;;;;;7.20;5.47;;;21.60;3.90;;;;;;5097638;28;20468;-69
2023/04/17 11:06:39;;;;;;;6.97;4.53;;;21.30;4.70;;;;;;5102383;28;20468;-70
2023/04/17 11:09:08;;;;;;;7.33;5.00;;;21.00;5.10;;;;;;5105501;28;20943;-70
2023/04/17 11:11:37;;;;;;;7.10;4.67;;;20.80;5.30;;;;;;5102886;28;21006;-70
2023/04/17 11:14:07;;;;;;;6.30;4.33;;;20.80;5.80;;;;;;5102638;28;20470;-70
2023/04/17 11:16:34;;;;;;;6.25;4.25;;;20.80;6.20;;;;;;5104621;28;20462;-70
2023/04/17 11:19:01;;;;;;;6.63;4.43;;;21.00;6.70;;;;;;5104759;28;20476;-70
2023/04/17 11:21:30;;;;;;;5.90;4.20;;;21.00;6.10;;;;;;5107645;27;20479;-73
2023/04/17 11:23:57;;;;;;;7.20;5.30;;;20.80;6.10;;;;;;5106561;28;20467;-72
2023/04/17 11:26:23;;;;;;;5.90;3.90;;;20.50;5.80;;;;;;5104624;27;20455;-70
2023/04/17 11:28:50;;;;;;;6.13;4.03;;;20.30;6.50;;;;;;5104463;28;20471;-70
2023/04/17 11:31:17;;;;;;;6.77;3.80;;;20.20;6.70;;;;;;5103713;28;20501;-71
2023/04/17 11:33:43;;;;;;;5.50;3.10;;;20.20;6.70;;;;;;5099589;28;20459;-68
2023/04/17 11:36:10;;;;;;;6.13;4.23;;;20.30;6.50;;;;;;5097090;28;20463;-70
2023/04/17 11:38:46;;;;;;;6.43;3.60;;;20.30;6.60;;;;;;5101428;28;20488;-70
2023/04/17 11:41:13;;;;;;;6.50;3.80;;;20.30;7.10;;;;;;5105701;28;20528;-70
2023/04/17 11:43:40;;;;;;;6.07;4.07;;;20.30;7.50;;;;;;5107098;27;20464;-70
2023/04/17 11:46:07;;;;;;;5.90;3.90;;;20.30;7.60;;;;;;5108193;28;20482;-68
2023/04/17 11:48:35;;;;;;;5.40;3.50;;;20.30;6.40;;;;;;5104172;27;20470;-69
2023/04/17 11:51:04;;;;;;;6.40;4.07;;;20.10;6.20;;;;;;5102464;28;20476;-69
2023/04/17 11:53:34;;;;;;;5.43;3.20;;;20.10;6.50;;;;;;5095556;28;20498;-68
2023/04/17 11:56:16;;;;;;;4.93;2.40;;;19.80;6.10;;;;;;5097796;27;20460;-68
2023/04/17 11:58:47;;;;;;;5.33;2.37;;;19.60;6.00;;;;;;5095151;28;20480;-68
2023/04/17 12:01:14;;;;;;;4.70;2.43;;;19.40;5.40;;;;;;5100026;28;20482;-70
2023/04/17 12:03:41;;;;;;;6.40;4.30;;;19.10;6.20;;;;;;5095517;28;20467;-68
2023/04/17 12:06:09;;;;;;;5.90;3.63;;;18.80;7.10;;;;;;5105370;28;20463;-70
2023/04/17 12:08:48;;;;;;;5.50;3.13;;;18.20;8.80;;;;;;5093838;28;20467;-70
2023/04/17 12:11:23;;;;;;;6.20;3.90;;;17.40;10.70;;;;;;5091783;28;20487;-70
2023/04/17 12:13:50;;;;;;;5.40;2.77;;;16.90;12.30;;;;;;5098149;28;20990;-73
2023/04/17 12:16:17;;;;;;;5.20;2.57;;;16.40;12.10;;;;;;5098983;28;20787;-70
2023/04/17 12:18:44;;;;;;;6.00;3.10;;;15.90;13.10;;;;;;5103510;28;20499;-71
2023/04/17 12:21:11;;;;;;;5.37;3.10;;;15.60;14.90;;;;;;5096610;28;20483;-71
2023/04/17 12:23:38;;;;;;;5.50;3.00;;;15.30;15.50;;;;;;5102370;28;20463;-71
2023/04/17 12:26:04;;;;;;;6.03;2.60;;;15.10;16.90;;;;;;5093954;28;20464;-70
2023/04/17 12:28:33;;;;;;;4.77;2.47;;;14.90;16.30;;;;;;5103845;28;20451;-72
2023/04/17 12:30:59;;;;;;;5.47;2.80;;;14.60;16.80;;;;;;5101145;28;20475;-75
2023/04/17 12:33:26;;;;;;;6.80;3.03;;;14.50;17.50;;;;;;5096129;28;21139;-71
2023/04/17 12:35:53;;;;;;;6.97;4.50;;;14.30;18.70;;;;;;5100802;27;20472;-74
2023/04/17 12:38:19;;;;;;;7.10;4.13;;;14.10;20.00;;;;;;5100830;28;20475;-73
2023/04/17 12:40:46;;;;;;;6.60;4.30;;;14.10;19.90;;;;;;5093717;28;20484;-75
2023/04/17 12:43:13;;;;;;;8.67;4.63;;;13.90;19.40;;;;;;5082289;28;20456;-73
2023/04/17 12:45:44;;;;;;;7.20;3.50;;;13.70;20.30;;;;;;5076143;28;20465;-73
2023/04/17 12:48:11;;;;;;;6.47;3.27;;;13.50;20.30;;;;;;5071828;28;21058;-76